Time;durP1;ratioP1;P1;durP2;ratioP2;P2;SDS_P1;SDS_P2;PMS_P1;PMS_P2;Temp;Humidity;BMP_temperature;BMP_pressure;BME280_temperature;BME280_humidity;BME280_pressure;Samples;Min_cycle;Max_cycle;Signal;HPM_P1;HPM_P2
2022/07/18 00:01:33;;;;;;;6.80;6.20;;;;;;;15.50;94.51;102434.47;4979864;28;21092;-44
2022/07/18 00:04:01;;;;;;;7.97;7.37;;;;;;;15.47;94.79;102428.66;4994677;28;20477;-44
2022/07/18 00:06:28;;;;;;;7.40;6.80;;;;;;;15.42;95.20;102439.09;4994884;28;20553;-44
2022/07/18 00:08:56;;;;;;;9.73;6.57;;;;;;;15.40;95.41;102438.44;4994952;28;20441;-44
2022/07/18 00:11:24;;;;;;;6.67;6.20;;;;;;;15.38;95.28;102433.25;4990579;28;20546;-44
2022/07/18 00:13:53;;;;;;;9.13;7.63;;;;;;;15.35;95.30;102440.88;4974953;28;20431;-45
2022/07/18 00:16:22;;;;;;;7.50;7.00;;;;;;;15.32;95.39;102446.63;4974937;28;21350;-44
2022/07/18 00:18:50;;;;;;;8.20;6.50;;;;;;;15.27;95.31;102444.47;4975274;28;20439;-44
2022/07/18 00:21:18;;;;;;;7.83;7.27;;;;;;;15.24;95.63;102439.47;4977531;28;20969;-45
2022/07/18 00:23:46;;;;;;;8.23;7.57;;;;;;;15.22;95.94;102449.59;4994283;28;20482;-44
2022/07/18 00:26:13;;;;;;;8.00;7.40;;;;;;;15.20;96.27;102448.91;4994475;28;20454;-45
2022/07/18 00:28:41;;;;;;;8.33;7.73;;;;;;;15.20;96.51;102450.81;4994585;28;20434;-47
2022/07/18 00:31:10;;;;;;;7.97;7.27;;;;;;;15.19;96.60;102439.22;4992214;28;20438;-44
2022/07/18 00:33:37;;;;;;;10.77;7.47;;;;;;;15.19;96.92;102458.03;4967796;28;20465;-45
2022/07/18 00:36:06;;;;;;;8.47;7.80;;;;;;;15.21;96.97;102447.06;4974735;28;20476;-45
2022/07/18 00:38:33;;;;;;;7.47;7.03;;;;;;;15.23;97.20;102445.06;4974764;28;20453;-48
2022/07/18 00:41:01;;;;;;;10.63;7.80;;;;;;;15.26;97.17;102442.00;4974910;28;20425;-47
2022/07/18 00:43:29;;;;;;;9.10;8.00;;;;;;;15.29;97.52;102444.31;4994061;28;20900;-45
2022/07/18 00:45:56;;;;;;;8.13;7.50;;;;;;;15.31;97.50;102447.63;4994230;28;20460;-46
2022/07/18 00:48:25;;;;;;;7.90;7.40;;;;;;;15.34;97.59;102444.56;4993949;28;20449;-45
2022/07/18 00:50:53;;;;;;;8.33;7.50;;;;;;;15.37;98.07;102433.44;4994068;28;20438;-44
2022/07/18 00:53:23;;;;;;;7.80;7.10;;;;;;;15.40;98.28;102441.13;4973825;28;20976;-47
2022/07/18 00:55:53;;;;;;;9.70;9.00;;;;;;;15.43;98.30;102436.22;4974574;28;20522;-46
2022/07/18 00:58:21;;;;;;;8.73;8.00;;;;;;;15.46;98.44;102429.63;4974629;28;20526;-48
2022/07/18 01:03:35;;;;;;;8.33;7.63;;;;;;;15.51;98.73;102421.88;4973911;28;20482;-47
2022/07/18 01:06:03;;;;;;;8.33;7.67;;;;;;;15.53;98.65;102432.44;4974069;28;20454;-46
2022/07/18 01:08:32;;;;;;;7.07;6.57;;;;;;;15.56;98.75;102435.56;4973846;28;20443;-44
2022/07/18 01:11:00;;;;;;;9.90;8.27;;;;;;;15.59;98.70;102437.06;4974425;28;20442;-45
2022/07/18 01:13:27;;;;;;;7.57;6.83;;;;;;;15.61;98.54;102441.25;4993460;28;20803;-45
2022/07/18 01:15:55;;;;;;;7.33;6.60;;;;;;;15.62;98.43;102439.38;4993298;28;20474;-45
2022/07/18 01:18:23;;;;;;;8.30;7.47;;;;;;;15.65;99.03;102437.13;4993353;28;20440;-46
2022/07/18 01:20:52;;;;;;;7.43;6.70;;;;;;;15.66;98.41;102433.44;4993469;28;20803;-45
2022/07/18 01:23:19;;;;;;;7.33;6.90;;;;;;;15.70;98.46;102440.09;4973351;28;20470;-44
2022/07/18 01:25:47;;;;;;;7.63;6.97;;;;;;;15.71;98.16;102435.56;4973999;28;20455;-45
2022/07/18 01:28:15;;;;;;;6.93;6.53;;;;;;;15.72;98.06;102443.44;4973947;28;20514;-45
2022/07/18 01:30:43;;;;;;;6.67;6.13;;;;;;;15.74;98.07;102443.25;4973833;28;20435;-46
2022/07/18 01:33:10;;;;;;;7.23;6.83;;;;;;;15.73;97.73;102431.66;4990914;28;20480;-44
2022/07/18 01:35:38;;;;;;;7.60;6.77;;;;;;;15.74;97.67;102440.56;4992979;28;20434;-45
2022/07/18 01:38:07;;;;;;;6.57;6.10;;;;;;;15.74;97.51;102436.00;4993371;28;20438;-45
2022/07/18 01:40:35;;;;;;;7.23;6.60;;;;;;;15.72;97.07;102435.38;4993182;28;20437;-45
2022/07/18 01:43:02;;;;;;;6.27;5.97;;;;;;;15.72;96.74;102439.91;4975462;28;20505;-45
2022/07/18 01:45:30;;;;;;;8.03;7.27;;;;;;;15.68;96.59;102435.94;4973295;28;20479;-47
2022/07/18 01:47:58;;;;;;;6.40;5.90;;;;;;;15.67;96.40;102428.88;4973527;28;20928;-45
2022/07/18 01:50:25;;;;;;;6.40;6.10;;;;;;;15.67;96.49;102431.56;4973685;28;20434;-45
2022/07/18 01:52:53;;;;;;;7.30;6.13;;;;;;;15.65;96.28;102434.44;4988463;28;20994;-45
2022/07/18 01:55:22;;;;;;;6.63;6.03;;;;;;;15.64;96.28;102435.47;4992889;28;20436;-45
2022/07/18 01:57:50;;;;;;;7.10;6.07;;;;;;;15.64;96.13;102434.66;4992808;28;20452;-47
2022/07/18 02:00:17;;;;;;;6.30;5.90;;;;;;;15.63;96.15;102432.97;4992931;28;20532;-44
2022/07/18 02:02:45;;;;;;;6.57;6.20;;;;;;;15.62;96.27;102432.13;4977477;28;20469;-46
2022/07/18 02:05:13;;;;;;;6.43;6.13;;;;;;;15.63;96.29;102431.13;4973335;28;20475;-45
2022/07/18 02:07:42;;;;;;;7.60;7.20;;;;;;;15.63;96.32;102422.22;4973274;28;20890;-44
2022/07/18 02:10:12;;;;;;;6.53;6.17;;;;;;;15.64;96.64;102427.41;4973293;28;21045;-44
2022/07/18 02:12:42;;;;;;;6.60;6.20;;;;;;;15.64;96.58;102422.03;4986399;28;20476;-44
2022/07/18 02:15:11;;;;;;;7.37;6.20;;;;;;;15.65;96.66;102421.00;4992793;28;20437;-44
2022/07/18 02:17:39;;;;;;;6.37;5.80;;;;;;;15.67;96.65;102423.50;4992329;28;20549;-47
2022/07/18 02:20:09;;;;;;;7.00;6.40;;;;;;;15.66;96.69;102414.59;4991808;28;20434;-44
2022/07/18 02:22:37;;;;;;;6.37;5.87;;;;;;;15.64;96.66;102415.81;4978343;28;20477;-45
2022/07/18 02:25:06;;;;;;;6.00;5.60;;;;;;;15.65;97.15;102412.13;4972892;28;20485;-45
2022/07/18 02:27:34;;;;;;;6.03;5.53;;;;;;;15.66;97.05;102403.84;4973146;28;20463;-44
2022/07/18 02:30:03;;;;;;;6.50;6.03;;;;;;;15.67;96.70;102404.69;4973126;28;20443;-45
2022/07/18 02:32:31;;;;;;;6.40;6.00;;;;;;;15.67;96.62;102397.44;4979562;28;20470;-45
2022/07/18 02:35:00;;;;;;;6.30;5.90;;;;;;;15.69;96.83;102395.41;4991306;28;20879;-45
2022/07/18 02:37:27;;;;;;;6.60;6.20;;;;;;;15.70;96.56;102402.44;4992281;28;20544;-44
2022/07/18 02:39:55;;;;;;;6.17;5.67;;;;;;;15.70;96.52;102401.63;4992201;28;20943;-45
2022/07/18 02:42:23;;;;;;;6.30;5.80;;;;;;;15.69;96.41;102384.63;4979979;28;20463;-44
2022/07/18 02:44:50;;;;;;;5.87;5.47;;;;;;;15.69;96.24;102390.03;4972872;28;20483;-46
2022/07/18 02:47:19;;;;;;;6.07;5.67;;;;;;;15.68;96.23;102391.03;4972715;28;21009;-45
2022/07/18 02:49:47;;;;;;;6.77;6.27;;;;;;;15.70;96.32;102390.84;4972818;28;20619;-45
2022/07/18 02:52:14;;;;;;;6.40;6.00;;;;;;;15.70;96.33;102380.94;4982464;28;20469;-44
2022/07/18 02:54:42;;;;;;;6.10;5.63;;;;;;;15.72;96.12;102384.25;4992370;28;20527;-44
2022/07/18 02:57:10;;;;;;;6.57;6.10;;;;;;;15.72;96.39;102380.72;4992238;28;20467;-44
2022/07/18 02:59:38;;;;;;;6.47;6.07;;;;;;;15.73;96.13;102383.25;4992234;28;20484;-45
2022/07/18 03:02:06;;;;;;;6.53;6.10;;;;;;;15.74;96.21;102376.81;4982204;28;20830;-45
2022/07/18 03:04:35;;;;;;;6.30;5.87;;;;;;;15.74;96.30;102381.41;4972502;28;20482;-47
2022/07/18 03:07:03;;;;;;;7.63;7.00;;;;;;;15.76;96.25;102380.19;4972884;28;20753;-44
2022/07/18 03:09:31;;;;;;;6.47;6.07;;;;;;;15.75;95.94;102375.81;4972781;28;20635;-46
2022/07/18 03:11:58;;;;;;;7.60;7.00;;;;;;;15.77;95.91;102364.88;4980467;28;20466;-44
2022/07/18 03:14:26;;;;;;;7.70;7.20;;;;;;;15.77;95.66;102360.31;4991748;28;20521;-44
2022/07/18 03:16:54;;;;;;;7.23;6.63;;;;;;;15.78;95.46;102353.06;4991663;28;20472;-45
2022/07/18 03:19:22;;;;;;;8.87;7.93;;;;;;;15.78;95.10;102353.91;4991885;28;20438;-45
2022/07/18 03:21:51;;;;;;;6.90;6.40;;;;;;;15.78;95.18;102353.91;4984424;28;20467;-45
2022/07/18 03:24:19;;;;;;;7.60;7.00;;;;;;;15.80;95.07;102354.53;4972239;28;20529;-45
2022/07/18 03:26:47;;;;;;;6.40;5.90;;;;;;;15.81;94.93;102352.69;4972572;28;20546;-46
2022/07/18 03:29:14;;;;;;;6.43;5.80;;;;;;;15.82;94.91;102355.19;4972443;28;20817;-46
2022/07/18 03:31:42;;;;;;;6.90;6.50;;;;;;;15.82;94.85;102352.50;4978838;28;20549;-45
2022/07/18 03:34:10;;;;;;;6.37;5.90;;;;;;;15.83;94.68;102348.78;4988314;28;20505;-46
2022/07/18 03:36:37;;;;;;;6.13;5.73;;;;;;;15.84;94.57;102344.22;4995526;28;20449;-45
2022/07/18 03:39:08;;;;;;;7.23;6.73;;;;;;;15.86;94.55;102345.69;4995508;28;20433;-44
2022/07/18 03:41:36;;;;;;;6.53;6.20;;;;;;;15.88;94.68;102349.06;4989546;28;20462;-45
2022/07/18 03:44:05;;;;;;;6.83;6.33;;;;;;;15.92;94.59;102350.31;4975594;28;20434;-44
2022/07/18 03:46:33;;;;;;;6.63;6.23;;;;;;;15.94;94.49;102347.44;4975493;28;20883;-45
2022/07/18 03:49:02;;;;;;;8.03;7.33;;;;;;;15.98;94.57;102352.22;4975814;28;20928;-46
2022/07/18 03:51:30;;;;;;;6.97;6.43;;;;;;;16.00;94.44;102357.44;4979701;28;20493;-45
2022/07/18 03:53:57;;;;;;;6.83;6.23;;;;;;;16.02;94.34;102361.59;4994918;28;20434;-46
2022/07/18 03:56:26;;;;;;;7.60;7.10;;;;;;;16.06;94.36;102351.28;4995007;28;20453;-46
2022/07/18 03:58:54;;;;;;;8.03;6.90;;;;;;;16.10;94.07;102349.84;4994880;28;20440;-46
2022/07/18 04:01:22;;;;;;;7.17;6.70;;;;;;;16.15;94.40;102342.03;5030571;23;20451;-45
2022/07/18 04:03:49;;;;;;;8.30;7.60;;;;;;;16.19;94.09;102337.13;5034257;28;20428;-45
2022/07/18 04:06:17;;;;;;;9.37;7.97;;;;;;;16.29;94.32;102346.50;5034156;28;20529;-43
2022/07/18 04:08:45;;;;;;;7.60;7.00;;;;;;;16.35;94.15;102340.34;5034338;28;20459;-42
2022/07/18 04:11:13;;;;;;;7.93;6.67;;;;;;;16.44;94.27;102341.03;5033724;28;20539;-43
2022/07/18 04:13:49;;;;;;;7.50;6.67;;;;;;;16.54;94.22;102339.69;5034187;28;20439;-43
2022/07/18 04:16:17;;;;;;;7.20;6.70;;;;;;;16.62;93.67;102340.53;5034309;28;20478;-42
2022/07/18 04:18:45;;;;;;;7.70;7.10;;;;;;;16.65;92.92;102340.16;5034149;28;20528;-43
2022/07/18 04:21:13;;;;;;;8.87;7.40;;;;;;;16.70;92.93;102332.31;5033596;28;20458;-45
2022/07/18 04:23:41;;;;;;;7.90;7.20;;;;;;;16.80;93.14;102336.31;5033746;28;20432;-45
2022/07/18 04:26:10;;;;;;;7.33;6.63;;;;;;;16.85;92.59;102328.47;5033805;28;20478;-44
2022/07/18 04:28:38;;;;;;;7.60;6.90;;;;;;;16.93;92.35;102328.31;5033762;28;20436;-44
2022/07/18 04:31:07;;;;;;;7.63;7.13;;;;;;;16.96;91.20;102330.59;5033435;28;20456;-44
2022/07/18 04:33:35;;;;;;;7.73;7.00;;;;;;;17.03;91.47;102330.63;5019371;28;20433;-44
2022/07/18 04:36:02;;;;;;;7.20;6.57;;;;;;;17.13;91.71;102331.91;5013863;28;20516;-44
2022/07/18 04:38:34;;;;;;;6.23;5.73;;;;;;;17.24;91.39;102319.72;5013806;28;20437;-43
2022/07/18 04:41:01;;;;;;;6.87;6.37;;;;;;;17.35;91.17;102326.41;5013314;28;20460;-46
2022/07/18 04:43:29;;;;;;;6.27;5.87;;;;;;;17.45;90.89;102327.66;5012751;28;20433;-48
2022/07/18 04:45:56;;;;;;;6.83;6.33;;;;;;;17.54;90.46;102329.16;5013622;28;21051;-45
2022/07/18 04:48:25;;;;;;;6.40;5.90;;;;;;;17.59;89.55;102328.56;5013748;28;20528;-46
2022/07/18 04:50:53;;;;;;;7.77;6.27;;;;;;;17.66;88.66;102330.22;5013486;28;20541;-44
2022/07/18 04:53:21;;;;;;;6.93;6.43;;;;;;;17.76;88.66;102327.16;5012912;28;21037;-43
2022/07/18 04:55:48;;;;;;;7.87;7.27;;;;;;;17.83;88.39;102327.97;5013471;28;20440;-43
2022/07/18 04:58:16;;;;;;;7.83;7.27;;;;;;;17.85;87.77;102319.69;5013692;28;20536;-45
2022/07/18 05:00:44;;;;;;;7.83;7.03;;;;;;;17.86;87.52;102316.75;5013374;28;20548;-45
2022/07/18 05:03:11;;;;;;;8.50;7.90;;;;;;;17.83;86.88;102321.75;5012788;28;20471;-45
2022/07/18 05:05:41;;;;;;;9.27;7.53;;;;;;;17.82;86.63;102325.50;5013121;28;20476;-44
2022/07/18 05:08:11;;;;;;;7.90;7.40;;;;;;;17.77;86.13;102326.09;5013600;28;20539;-44
2022/07/18 05:10:39;;;;;;;9.20;8.40;;;;;;;17.74;86.38;102323.00;5013197;28;20564;-44
2022/07/18 05:13:07;;;;;;;7.80;7.07;;;;;;;17.73;86.67;102322.16;5012663;28;20461;-44
2022/07/18 05:15:34;;;;;;;9.80;8.80;;;;;;;17.69;86.84;102329.81;5013283;28;20433;-44
2022/07/18 05:18:02;;;;;;;8.53;8.03;;;;;;;17.66;87.04;102327.53;5012965;28;21041;-45
2022/07/18 05:20:30;;;;;;;9.30;8.60;;;;;;;17.64;87.19;102329.63;5013250;28;20439;-44
2022/07/18 05:22:59;;;;;;;8.10;7.30;;;;;;;17.61;87.69;102327.34;5012446;28;20468;-45
2022/07/18 05:25:26;;;;;;;7.10;6.80;;;;;;;17.57;87.60;102328.75;5013067;28;20468;-45
2022/07/18 05:27:54;;;;;;;8.03;7.27;;;;;;;17.57;87.53;102328.75;5013042;28;20441;-45
2022/07/18 05:30:22;;;;;;;7.80;7.30;;;;;;;17.57;88.16;102336.03;5013175;28;20855;-44
2022/07/18 05:32:53;;;;;;;7.90;7.20;;;;;;;17.56;87.96;102331.69;5012072;28;21052;-45
2022/07/18 05:35:21;;;;;;;7.07;6.57;;;;;;;17.58;88.46;102326.91;5013019;28;20509;-43
2022/07/18 05:37:49;;;;;;;7.53;6.90;;;;;;;17.60;88.48;102333.75;5012908;28;20439;-45
2022/07/18 05:40:18;;;;;;;8.37;7.70;;;;;;;17.65;88.94;102330.47;5012636;28;20942;-46
2022/07/18 05:42:46;;;;;;;7.60;6.90;;;;;;;17.72;89.04;102325.88;5012065;28;20475;-44
2022/07/18 05:45:23;;;;;;;7.13;6.70;;;;;;;17.84;89.40;102335.03;5012672;28;20415;-47
2022/07/18 05:47:52;;;;;;;8.77;7.70;;;;;;;17.98;88.97;102339.41;5011939;28;20476;-44
2022/07/18 05:50:20;;;;;;;7.63;6.73;;;;;;;18.17;88.61;102351.25;5012533;28;20448;-44
2022/07/18 05:52:47;;;;;;;8.37;7.67;;;;;;;18.32;88.33;102348.34;5011934;28;20833;-44
2022/07/18 05:55:15;;;;;;;8.03;7.23;;;;;;;18.48;87.30;102347.91;5012427;28;20934;-45
2022/07/18 05:57:45;;;;;;;7.33;6.63;;;;;;;18.62;86.62;102344.19;5012574;28;20436;-42
2022/07/18 06:00:13;;;;;;;7.77;7.00;;;;;;;18.73;85.65;102340.81;5012622;28;20465;-44
2022/07/18 06:02:41;;;;;;;7.67;7.17;;;;;;;18.84;84.94;102342.91;5009987;28;20555;-43
2022/07/18 06:05:10;;;;;;;7.17;6.70;;;;;;;18.92;83.44;102348.06;5009560;28;20948;-46
2022/07/18 06:07:55;;;;;;;6.60;6.20;;;;;;;19.07;83.26;102343.22;5011221;28;20472;-45
2022/07/18 06:10:24;;;;;;;6.97;6.60;;;;;;;19.27;83.12;102343.97;5011895;28;20591;-43
2022/07/18 06:12:54;;;;;;;7.10;6.70;;;;;;;19.45;80.51;102337.03;5011593;28;20551;-45
2022/07/18 06:15:22;;;;;;;6.83;6.40;;;;;;;19.63;79.67;102334.44;5012277;28;20464;-46
2022/07/18 06:17:50;;;;;;;7.40;7.00;;;;;;;19.79;80.61;102340.16;5011478;28;20436;-44
2022/07/18 06:20:18;;;;;;;6.30;6.00;;;;;;;19.87;78.50;102339.06;5011920;28;20984;-46
2022/07/18 06:22:46;;;;;;;6.80;6.27;;;;;;;19.95;77.28;102337.97;5011258;28;20492;-44
2022/07/18 06:25:13;;;;;;;7.40;6.90;;;;;;;19.99;76.73;102336.47;5012103;28;20425;-46
2022/07/18 06:27:41;;;;;;;7.30;6.80;;;;;;;20.07;75.31;102330.81;5011090;28;20472;-45
2022/07/18 06:30:12;;;;;;;7.53;6.90;;;;;;;20.20;76.35;102338.78;5011187;28;20798;-42
2022/07/18 06:32:40;;;;;;;7.70;7.17;;;;;;;20.19;73.73;102331.75;5011383;28;20461;-46
2022/07/18 06:35:09;;;;;;;6.83;6.43;;;;;;;20.28;73.89;102342.09;5003806;28;20431;-44
2022/07/18 06:37:37;;;;;;;8.70;7.20;;;;;;;20.37;73.82;102343.47;5011965;28;21048;-44
2022/07/18 06:40:06;;;;;;;10.47;6.80;;;;;;;20.47;73.17;102351.09;5012085;28;20537;-44
2022/07/18 06:42:34;;;;;;;8.47;7.00;;;;;;;20.54;73.27;102349.16;5011282;28;20855;-44
2022/07/18 06:45:03;;;;;;;6.97;6.57;;;;;;;20.58;71.80;102346.84;5011999;28;20436;-45
2022/07/18 06:47:42;;;;;;;7.00;6.43;;;;;;;20.75;72.51;102342.47;5011896;28;20834;-44
2022/07/18 06:50:11;;;;;;;7.47;6.67;;;;;;;20.94;72.74;102331.41;5012049;28;20456;-43
2022/07/18 06:52:40;;;;;;;7.53;6.90;;;;;;;21.20;70.84;102335.72;5011183;28;20555;-47
2022/07/18 06:55:09;;;;;;;7.77;7.10;;;;;;;21.51;71.77;102324.63;5011895;28;20428;-43
2022/07/18 06:57:38;;;;;;;7.57;6.97;;;;;;;21.88;69.05;102324.53;5011817;28;20523;-46
2022/07/18 07:00:08;;;;;;;8.63;8.03;;;;;;;22.65;68.57;102323.41;5011626;28;20420;-44
2022/07/18 07:02:40;;;;;;;9.63;8.83;;;;;;;23.23;69.49;102311.56;5010960;28;20834;-45
2022/07/18 07:05:09;;;;;;;8.97;8.37;;;;;;;23.15;62.96;102312.75;5011785;28;20432;-46
2022/07/18 07:07:37;;;;;;;10.27;9.43;;;;;;;23.42;62.08;102313.84;5013926;28;21060;-44
2022/07/18 07:10:13;;;;;;;10.40;9.80;;;;;;;23.77;61.43;102307.41;5015445;28;20431;-46
2022/07/18 07:12:41;;;;;;;9.60;8.90;;;;;;;;;;5014654;28;20476;-45
2022/07/18 07:15:10;;;;;;;9.60;8.90;;;;;;;24.31;59.97;102306.69;5015532;28;20440;-45
2022/07/18 07:17:38;;;;;;;9.37;8.57;;;;;;;24.56;57.51;102301.56;5015414;28;20515;-45
2022/07/18 07:20:07;;;;;;;7.90;7.30;;;;;;;24.75;57.60;102297.47;5015280;28;20937;-47
2022/07/18 07:22:44;;;;;;;7.70;7.20;;;;;;;25.22;56.81;102297.78;5014508;28;20467;-46
2022/07/18 07:25:12;;;;;;;7.47;6.87;;;;;;;25.48;55.58;102284.38;5014551;28;20523;-46
2022/07/18 07:27:40;;;;;;;7.80;7.17;;;;;;;25.98;53.81;102282.16;5015236;28;20838;-45
2022/07/18 07:30:09;;;;;;;7.50;6.80;;;;;;;26.57;52.93;102285.53;5015060;28;20487;-46
2022/07/18 07:32:37;;;;;;;10.90;6.93;;;;;;;26.45;52.38;102279.47;5014272;28;20468;-45
2022/07/18 07:35:10;;;;;;;7.87;7.20;;;;;;;26.21;50.50;102289.16;5014843;28;20435;-43
2022/07/18 07:37:38;;;;;;;7.60;7.07;;;;;;;25.94;52.44;102286.47;5015031;28;20801;-44
2022/07/18 07:40:08;;;;;;;7.43;6.90;;;;;;;25.66;52.55;102273.09;5015121;28;20531;-49
2022/07/18 07:42:35;;;;;;;7.27;6.87;;;;;;;25.47;52.91;102272.66;5014149;28;21017;-46
2022/07/18 07:45:04;;;;;;;7.63;7.03;;;;;;;25.40;52.93;102272.03;5014986;28;20432;-45
2022/07/18 07:47:32;;;;;;;7.27;6.57;;;;;;;25.38;52.14;102274.22;5014915;28;20562;-47
2022/07/18 07:50:00;;;;;;;7.73;6.93;;;;;;;25.44;53.79;102266.88;5014725;28;20536;-47
2022/07/18 07:52:28;;;;;;;7.80;7.23;;;;;;;25.50;53.99;102263.97;5013841;28;20468;-44
2022/07/18 07:54:56;;;;;;;7.80;7.13;;;;;;;25.29;50.72;102273.03;5014590;28;20527;-47
2022/07/18 07:57:25;;;;;;;8.00;7.40;;;;;;;25.38;52.70;102274.22;5014567;28;20433;-46
2022/07/18 07:59:59;;;;;;;8.50;7.33;;;;;;;25.55;53.14;102261.28;5014817;28;20435;-45
2022/07/18 08:02:27;;;;;;;7.60;7.03;;;;;;;25.98;53.64;102265.75;5013752;28;20473;-45
2022/07/18 08:04:55;;;;;;;9.57;6.90;;;;;;;26.17;49.81;102250.56;5014758;28;20461;-46
2022/07/18 08:07:23;;;;;;;7.90;7.30;;;;;;;26.19;50.55;102251.16;5014326;28;20489;-48
2022/07/18 08:09:51;;;;;;;6.73;6.27;;;;;;;26.24;50.82;102262.13;5014407;28;20523;-46
2022/07/18 08:12:18;;;;;;;7.30;6.60;;;;;;;26.30;50.66;102271.16;5013504;28;20993;-45
2022/07/18 08:14:49;;;;;;;7.80;7.10;;;;;;;26.30;50.46;102272.00;5014347;28;20439;-45
2022/07/18 08:17:17;;;;;;;6.50;6.00;;;;;;;26.57;50.42;102265.56;5014168;28;20440;-44
2022/07/18 08:19:44;;;;;;;8.33;6.90;;;;;;;26.78;49.92;102270.03;5014292;28;20440;-45
2022/07/18 08:22:12;;;;;;;7.40;6.70;;;;;;;27.08;47.87;102269.34;5013562;28;20473;-46
2022/07/18 08:24:40;;;;;;;7.07;6.47;;;;;;;27.57;48.80;102270.53;5014185;28;20429;-48
2022/07/18 08:27:09;;;;;;;9.60;8.70;;;;;;;28.00;48.10;102274.66;5014020;28;20478;-44
2022/07/18 08:29:36;;;;;;;7.03;6.63;;;;;;;28.30;46.14;102266.41;5013892;28;20436;-47
2022/07/18 08:32:25;;;;;;;6.43;5.80;;;;;;;28.25;45.84;102265.59;5013270;28;20838;-43
2022/07/18 08:34:53;;;;;;;5.90;5.60;;;;;;;28.43;44.01;102271.28;5013646;28;20428;-46
2022/07/18 08:37:21;;;;;;;9.27;6.30;;;;;;;28.53;44.28;102273.19;5012463;28;20779;-46
2022/07/18 08:39:49;;;;;;;7.00;5.80;;;;;;;28.61;43.13;102266.31;5012343;28;20436;-45
2022/07/18 08:42:19;;;;;;;6.20;5.80;;;;;;;29.01;42.66;102258.72;5011517;28;20556;-44
2022/07/18 08:44:48;;;;;;;5.67;5.23;;;;;;;29.03;42.88;102255.69;5013479;28;20432;-43
2022/07/18 08:47:18;;;;;;;6.10;5.50;;;;;;;29.10;42.38;102257.00;5015528;28;20430;-46
2022/07/18 08:49:48;;;;;;;5.50;5.10;;;;;;;29.20;42.46;102258.88;5016026;28;20432;-49
2022/07/18 08:52:16;;;;;;;6.40;5.80;;;;;;;29.03;40.53;102256.50;5012126;28;20475;-46
2022/07/18 08:54:56;;;;;;;6.03;5.53;;;;;;;29.08;41.95;102263.91;5013167;28;20436;-45
2022/07/18 08:57:28;;;;;;;5.83;5.43;;;;;;;29.20;40.70;102260.81;5013222;28;20444;-44
2022/07/18 08:59:56;;;;;;;8.33;5.80;;;;;;;29.37;41.37;102248.34;5013434;28;20429;-45
2022/07/18 09:02:26;;;;;;;5.93;5.53;;;;;;;29.26;39.45;102249.53;5012506;28;20472;-45
2022/07/18 09:04:55;;;;;;;6.07;5.67;;;;;;;29.28;41.29;102244.56;5013135;28;20460;-45
2022/07/18 09:07:43;;;;;;;5.40;4.90;;;;;;;28.95;39.55;102237.88;5012420;28;20468;-46
2022/07/18 09:10:11;;;;;;;6.33;5.80;;;;;;;28.95;39.91;102228.81;5013082;28;20527;-46
2022/07/18 09:12:38;;;;;;;6.00;5.50;;;;;;;28.95;40.09;102232.38;5012314;28;20464;-46
2022/07/18 09:15:10;;;;;;;5.77;5.37;;;;;;;28.86;40.07;102231.34;5012105;28;20439;-44
2022/07/18 09:17:38;;;;;;;5.37;5.00;;;;;;;28.90;41.83;102228.84;5032484;28;20451;-45
2022/07/18 09:20:10;;;;;;;5.77;5.20;;;;;;;28.50;38.59;102230.66;5032745;28;20434;-45
2022/07/18 09:22:41;;;;;;;7.00;6.40;;;;;;;28.40;40.05;102238.94;5030445;28;20987;-45
2022/07/18 09:25:12;;;;;;;6.10;5.60;;;;;;;28.23;40.67;102232.94;5032314;28;20432;-45
2022/07/18 09:27:41;;;;;;;5.17;4.87;;;;;;;28.37;40.89;102234.00;5032585;28;20809;-45
2022/07/18 09:30:21;;;;;;;6.33;5.83;;;;;;;28.43;41.56;102237.56;5031447;28;20523;-44
2022/07/18 09:32:52;;;;;;;6.47;5.67;;;;;;;28.38;40.22;102234.81;5024066;28;20563;-46
2022/07/18 09:35:24;;;;;;;6.50;6.10;;;;;;;28.15;41.04;102236.25;5012223;28;20938;-46
2022/07/18 09:37:59;;;;;;;5.93;5.30;;;;;;;28.25;41.35;102227.19;5012770;28;20443;-45
2022/07/18 09:40:29;;;;;;;6.30;5.03;;;;;;;28.31;41.85;102237.03;5012666;28;20436;-45
2022/07/18 09:43:00;;;;;;;5.53;5.13;;;;;;;28.32;41.18;102244.16;5012205;28;21011;-45
2022/07/18 09:45:31;;;;;;;6.83;5.90;;;;;;;28.35;41.64;102241.69;5012717;28;20435;-46
2022/07/18 09:48:01;;;;;;;6.20;5.63;;;;;;;28.10;41.34;102244.50;5012649;28;20989;-45
2022/07/18 09:50:34;;;;;;;6.10;5.60;;;;;;;28.15;41.88;102243.66;5012372;28;20471;-46
2022/07/18 09:53:09;;;;;;;6.17;5.50;;;;;;;28.04;41.28;102251.09;5011900;28;20837;-45
2022/07/18 09:55:58;;;;;;;5.63;5.33;;;;;;;28.13;41.67;102246.69;5012469;28;20442;-49
2022/07/18 09:58:28;;;;;;;5.83;5.33;;;;;;;28.14;41.93;102252.97;5012644;28;20524;-49
2022/07/18 10:00:58;;;;;;;6.17;5.77;;;;;;;28.33;41.53;102251.28;5012427;28;20556;-45
2022/07/18 10:03:26;;;;;;;6.50;5.90;;;;;;;28.37;42.32;102246.91;5012013;28;20507;-48
2022/07/18 10:05:57;;;;;;;6.83;6.17;;;;;;;28.29;41.81;102244.72;5012260;28;20431;-44
2022/07/18 10:08:26;;;;;;;6.90;5.73;;;;;;;28.55;42.50;102251.78;5012473;28;20476;-44
2022/07/18 10:10:56;;;;;;;5.50;5.00;;;;;;;28.58;41.73;102248.47;5012424;28;20459;-46
2022/07/18 10:13:24;;;;;;;5.70;5.37;;;;;;;28.67;41.87;102256.97;5011989;28;20445;-46
2022/07/18 10:15:53;;;;;;;5.63;5.43;;;;;;;28.88;41.32;102258.53;5012240;28;20809;-45
2022/07/18 10:18:22;;;;;;;5.80;5.33;;;;;;;29.00;40.76;102245.28;5012081;28;20950;-45
2022/07/18 10:20:55;;;;;;;7.37;5.63;;;;;;;29.10;40.57;102235.03;5012326;28;20910;-45
2022/07/18 10:23:26;;;;;;;5.37;5.03;;;;;;;29.11;39.17;102233.13;5011821;28;20808;-45
2022/07/18 10:26:14;;;;;;;6.13;5.67;;;;;;;29.13;39.09;102227.31;5012288;28;20495;-48
2022/07/18 10:29:15;;;;;;;6.03;5.50;;;;;;;29.10;37.70;102223.22;5012550;28;20511;-48
2022/07/18 10:32:01;;;;;;;6.93;6.37;;;;;;;29.21;37.80;102230.28;5011665;28;20461;-47
2022/07/18 10:34:33;;;;;;;5.20;4.90;;;;;;;29.39;39.08;102217.84;5006359;28;20456;-46
2022/07/18 10:37:24;;;;;;;6.67;6.03;;;;;;;29.55;37.29;102209.16;5012161;28;20425;-45
2022/07/18 10:39:52;;;;;;;6.07;5.57;;;;;;;29.73;38.58;102226.88;5012131;28;20429;-46
2022/07/18 10:42:24;;;;;;;7.57;5.70;;;;;;;29.63;37.30;102214.03;5013266;28;20490;-44
2022/07/18 10:44:52;;;;;;;7.90;6.67;;;;;;;29.48;37.59;102219.66;5016167;28;20532;-44
2022/07/18 10:47:23;;;;;;;5.90;5.40;;;;;;;29.58;38.58;102227.84;5015903;28;20897;-45
2022/07/18 10:50:08;;;;;;;5.80;5.30;;;;;;;29.61;37.35;102224.50;5016097;28;20487;-45
2022/07/18 10:52:59;;;;;;;5.70;5.27;;;;;;;29.70;37.12;102210.97;5015459;28;20472;-45
2022/07/18 10:55:31;;;;;;;6.03;5.53;;;;;;;29.44;37.84;102215.03;5015892;28;20444;-47
2022/07/18 10:58:20;;;;;;;6.67;5.90;;;;;;;29.36;37.65;102210.97;5016022;28;20443;-45
2022/07/18 11:00:50;;;;;;;6.10;5.60;;;;;;;29.29;38.54;102202.25;5015932;28;20809;-45
2022/07/18 11:03:26;;;;;;;6.90;6.30;;;;;;;29.12;38.42;102206.47;5015001;28;20799;-50
2022/07/18 11:05:56;;;;;;;6.60;6.00;;;;;;;29.06;38.08;102219.44;5015646;28;20435;-46
2022/07/18 11:08:25;;;;;;;6.13;5.83;;;;;;;28.89;38.25;102216.22;5015703;28;20527;-47
2022/07/18 11:11:10;;;;;;;6.03;5.60;;;;;;;28.74;38.87;102225.34;5015765;28;20998;-45
2022/07/18 11:13:39;;;;;;;6.47;5.97;;;;;;;28.54;38.42;102226.25;5015289;28;20444;-47
2022/07/18 11:16:11;;;;;;;6.27;5.70;;;;;;;28.33;39.73;102230.19;5015717;28;20441;-46
2022/07/18 11:19:19;;;;;;;6.43;5.20;;;;;;;28.39;39.87;102225.47;5014913;28;20995;-45
2022/07/18 11:21:57;;;;;;;5.67;5.27;;;;;;;28.27;40.09;102216.75;5014987;28;20466;-48
2022/07/18 11:24:27;;;;;;;5.73;5.13;;;;;;;28.18;39.84;102207.44;5015455;28;20523;-44
2022/07/18 11:26:54;;;;;;;5.70;5.17;;;;;;;28.06;40.12;102202.28;5015276;28;20442;-43
2022/07/18 11:29:22;;;;;;;5.93;5.50;;;;;;;28.00;40.43;102209.66;5015513;28;20566;-44
2022/07/18 11:31:52;;;;;;;5.80;5.20;;;;;;;27.78;41.13;102209.13;5014396;28;20474;-47
2022/07/18 11:34:22;;;;;;;6.03;5.60;;;;;;;27.88;41.54;102211.06;5008654;28;20519;-46
2022/07/18 11:37:02;;;;;;;6.17;5.67;;;;;;;27.95;41.78;102209.69;5015105;28;21120;-47
2022/07/18 11:39:34;;;;;;;5.47;5.00;;;;;;;27.97;40.54;102203.91;5014996;28;20438;-46
2022/07/18 11:42:04;;;;;;;5.50;5.10;;;;;;;27.94;39.52;102204.47;5014828;28;20866;-44